createdAt,value
2019-02-12T00:01:07.051Z,103387.66
2019-02-12T00:03:34.840Z,103388.55
2019-02-12T00:06:02.712Z,103398.84
2019-02-12T00:08:30.966Z,103401.50
2019-02-12T00:10:58.893Z,103398.52
2019-02-12T00:13:26.815Z,103397.55
2019-02-12T00:15:54.780Z,103401.78
2019-02-12T00:18:22.579Z,103390.59
2019-02-12T00:20:50.521Z,103391.70
2019-02-12T00:23:18.404Z,103397.39
2019-02-12T00:25:47.903Z,103404.63
2019-02-12T00:28:15.800Z,103403.27
2019-02-12T00:30:43.750Z,103399.75
2019-02-12T00:33:11.571Z,103402.80
2019-02-12T00:35:40.670Z,103403.09
2019-02-12T00:38:10.431Z,103407.98
2019-02-12T00:40:38.205Z,103406.46
2019-02-12T00:43:05.985Z,103414.91
2019-02-12T00:45:33.943Z,103410.59
2019-02-12T00:48:01.849Z,103410.69
2019-02-12T00:50:30.721Z,103416.43
2019-02-12T00:52:58.477Z,103412.03
2019-02-12T00:55:26.555Z,103416.48
2019-02-12T00:57:54.446Z,103414.22
2019-02-12T01:00:22.246Z,103409.45
2019-02-12T01:02:50.170Z,103408.53
2019-02-12T01:05:17.982Z,103409.42
2019-02-12T01:07:45.742Z,103415.34
2019-02-12T01:10:13.679Z,103411.78
2019-02-12T01:12:41.477Z,103408.36
2019-02-12T01:15:11.304Z,103411.34
2019-02-12T01:17:39.238Z,103417.41
2019-02-12T01:20:09.584Z,103417.95
2019-02-12T01:22:37.543Z,103415.63
2019-02-12T01:25:06.685Z,103419.02
2019-02-12T01:27:34.614Z,103416.40
2019-02-12T01:30:02.502Z,103416.52
2019-02-12T01:32:30.271Z,103410.45
2019-02-12T01:34:58.227Z,103408.73
2019-02-12T01:37:26.120Z,103402.19
2019-02-12T01:39:53.980Z,103411.72
2019-02-12T01:42:21.957Z,103415.91
2019-02-12T01:44:49.749Z,103420.83
2019-02-12T01:47:17.637Z,103423.35
2019-02-12T01:49:45.554Z,103426.36
2019-02-12T01:52:13.371Z,103425.19
2019-02-12T01:54:41.228Z,103424.67
2019-02-12T01:57:09.383Z,103429.55
2019-02-12T01:59:37.226Z,103425.04
2019-02-12T02:02:05.295Z,103429.84
2019-02-12T02:04:33.849Z,103424.78
2019-02-12T02:07:01.665Z,103428.27
2019-02-12T02:09:29.785Z,103421.42
2019-02-12T02:11:57.740Z,103416.14
2019-02-12T02:14:25.546Z,103418.23
2019-02-12T02:16:54.691Z,103416.80
2019-02-12T02:19:22.605Z,103418.21
2019-02-12T02:21:50.535Z,103422.98
2019-02-12T02:24:18.388Z,103419.87
2019-02-12T02:26:46.234Z,103416.31
2019-02-12T02:29:14.569Z,103415.91
2019-02-12T02:31:43.509Z,103415.70
2019-02-12T02:34:11.655Z,103415.27
2019-02-12T02:36:41.096Z,103415.64
2019-02-12T02:39:08.991Z,103409.58
2019-02-12T02:41:40.609Z,103415.03
2019-02-12T02:44:08.667Z,103417.27
2019-02-12T02:46:36.627Z,103412.41
2019-02-12T02:49:04.391Z,103412.33
2019-02-12T02:51:32.160Z,103415.24
2019-02-12T02:54:00.129Z,103419.25
2019-02-12T02:56:27.927Z,103424.01
2019-02-12T02:58:55.976Z,103427.00
2019-02-12T03:01:23.778Z,103422.78
2019-02-12T03:03:51.574Z,103421.98
2019-02-12T03:06:19.453Z,103419.67
2019-02-12T03:08:47.255Z,103421.95
2019-02-12T03:11:15.027Z,103417.27
2019-02-12T03:13:44.475Z,103424.07
2019-02-12T03:16:12.256Z,103417.58
2019-02-12T03:18:40.076Z,103427.00
2019-02-12T03:21:08.051Z,103434.41
2019-02-12T03:23:36.927Z,103439.70
2019-02-12T03:26:04.913Z,103430.16
2019-02-12T03:28:32.709Z,103439.20
2019-02-12T03:31:00.607Z,103432.95
2019-02-12T03:33:28.399Z,103434.55
2019-02-12T03:35:56.359Z,103429.38
2019-02-12T03:38:26.109Z,103428.89
2019-02-12T03:40:54.196Z,103431.73
2019-02-12T03:43:22.461Z,103432.05
2019-02-12T03:45:50.212Z,103431.77
2019-02-12T03:48:18.222Z,103418.18
2019-02-12T03:50:45.989Z,103424.58
2019-02-12T03:53:15.083Z,103421.05
2019-02-12T03:55:44.566Z,103424.31
2019-02-12T03:58:12.341Z,103431.36
2019-02-12T04:00:40.399Z,103428.71
2019-02-12T04:03:08.414Z,103430.61
2019-02-12T04:05:38.016Z,103427.30
2019-02-12T04:08:06.538Z,103428.80
2019-02-12T04:10:34.306Z,103427.53
2019-02-12T04:13:02.252Z,103423.63
2019-02-12T04:15:30.217Z,103420.41
2019-02-12T04:17:57.991Z,103424.34
2019-02-12T04:20:26.876Z,103419.70
2019-02-12T04:22:54.777Z,103421.55
2019-02-12T04:25:23.646Z,103425.12
2019-02-12T04:27:51.671Z,103423.61
2019-02-12T04:30:19.455Z,103421.70
2019-02-12T04:32:47.230Z,103414.94
2019-02-12T04:35:15.228Z,103423.20
2019-02-12T04:37:43.009Z,103419.49
2019-02-12T04:40:11.118Z,103416.91
2019-02-12T04:42:39.432Z,103411.15
2019-02-12T04:45:08.582Z,103411.49
2019-02-12T04:47:36.345Z,103411.20
2019-02-12T04:50:10.346Z,103418.24
2019-02-12T04:52:38.171Z,103420.73
2019-02-12T04:55:07.852Z,103419.63
2019-02-12T04:57:35.793Z,103425.06
2019-02-12T05:00:04.553Z,103422.89
2019-02-12T05:02:32.449Z,103421.62
2019-02-12T05:05:00.430Z,103419.48
2019-02-12T05:07:28.504Z,103420.41
2019-02-12T05:09:56.296Z,103421.47
2019-02-12T05:12:25.276Z,103425.39
2019-02-12T05:14:53.237Z,103418.49
2019-02-12T05:17:21.224Z,103421.50
2019-02-12T05:19:50.094Z,103412.72
2019-02-12T05:22:18.082Z,103413.47
2019-02-12T05:24:46.060Z,103419.66
2019-02-12T05:27:13.839Z,103414.84
2019-02-12T05:29:41.617Z,103419.10
2019-02-12T05:32:09.567Z,103412.15
2019-02-12T05:34:37.464Z,103421.69
2019-02-12T05:37:05.393Z,103419.37
2019-02-12T05:39:33.286Z,103423.84
2019-02-12T05:42:01.084Z,103425.55
2019-02-12T05:44:28.859Z,103424.28
2019-02-12T05:46:56.814Z,103423.69
2019-02-12T05:49:24.593Z,103424.88
2019-02-12T05:51:52.360Z,103422.83
2019-02-12T05:54:21.428Z,103424.11
2019-02-12T05:56:49.317Z,103427.09
2019-02-12T05:59:17.090Z,103421.81
2019-02-12T06:01:46.918Z,103425.70
2019-02-12T06:04:14.739Z,103418.09
2019-02-12T06:06:42.629Z,103413.61
2019-02-12T06:09:10.598Z,103421.41
2019-02-12T06:11:38.398Z,103425.22
2019-02-12T06:14:06.341Z,103416.59
2019-02-12T06:16:34.185Z,103417.02
2019-02-12T06:19:01.953Z,103425.87
2019-02-12T06:21:29.989Z,103425.55
2019-02-12T06:23:57.774Z,103422.48
2019-02-12T06:26:25.927Z,103422.98
2019-02-12T06:28:53.734Z,103428.33
2019-02-12T06:31:21.546Z,103434.36
2019-02-12T06:33:49.521Z,103421.14
2019-02-12T06:36:17.695Z,103427.88
2019-02-12T06:38:45.702Z,103435.44
2019-02-12T06:41:13.593Z,103427.92
2019-02-12T06:43:41.516Z,103438.89
2019-02-12T06:46:09.336Z,103430.74
2019-02-12T06:48:37.265Z,103438.34
2019-02-12T06:51:05.045Z,103444.27
2019-02-12T06:53:32.805Z,103441.05
2019-02-12T06:56:00.772Z,103453.02
2019-02-12T06:58:28.593Z,103452.81
2019-02-12T07:00:57.588Z,103461.55
2019-02-12T07:03:44.034Z,103460.01
2019-02-12T07:06:40.447Z,103464.02
2019-02-12T07:09:36.770Z,103472.47
2019-02-12T07:13:03.810Z,103469.38
2019-02-12T07:16:42.077Z,103472.92
2019-02-12T07:20:01.873Z,103470.80
2019-02-12T07:23:33.749Z,103474.93
2019-02-12T07:26:55.825Z,103481.89
2019-02-12T07:30:05.181Z,103495.03
2019-02-12T07:32:54.325Z,103491.03
2019-02-12T07:36:13.889Z,103503.63
2019-02-12T07:39:34.145Z,103496.49
2019-02-12T07:42:53.194Z,103498.88
2019-02-12T07:49:45.385Z,103510.66
2019-02-12T07:52:43.751Z,103504.23
2019-02-12T07:56:21.678Z,103502.94
2019-02-12T07:59:19.375Z,103509.08
2019-02-12T08:02:37.028Z,103501.89
2019-02-12T08:05:54.583Z,103508.30
2019-02-12T08:09:19.872Z,103509.26
2019-02-12T08:12:25.543Z,103520.31
2019-02-12T08:16:15.159Z,103530.13
2019-02-12T08:19:23.181Z,103519.86
2019-02-12T08:23:00.062Z,103513.44
2019-02-12T08:26:26.927Z,103511.98
2019-02-12T08:29:29.941Z,103493.91
2019-02-12T08:33:13.512Z,103508.09
2019-02-12T08:36:17.945Z,103512.47
2019-02-12T08:39:36.526Z,103512.43
2019-02-12T08:42:45.897Z,103508.44
2019-02-12T08:45:52.198Z,103517.09
2019-02-12T08:48:46.930Z,103524.64
2019-02-12T08:52:16.503Z,103527.41
2019-02-12T08:55:31.959Z,103532.34
2019-02-12T08:58:40.922Z,103529.48
2019-02-12T09:02:12.343Z,103533.27
2019-02-12T09:05:26.605Z,103529.27
2019-02-12T09:09:19.731Z,103523.79
2019-02-12T09:12:54.879Z,103512.95
2019-02-12T09:16:21.543Z,103523.92
2019-02-12T09:19:17.404Z,103528.41
2019-02-12T09:26:59.588Z,103513.09
2019-02-12T09:30:44.820Z,103526.52
2019-02-12T09:33:59.825Z,103536.84
2019-02-12T09:37:50.240Z,103547.34
2019-02-12T09:40:51.021Z,103553.11
2019-02-12T09:44:11.572Z,103541.84
2019-02-12T09:47:13.316Z,103547.42
2019-02-12T09:50:47.335Z,103547.63
2019-02-12T09:53:57.426Z,103540.34
2019-02-12T09:57:05.358Z,103547.67
2019-02-12T10:04:20.037Z,103551.27
2019-02-12T10:07:54.560Z,103554.77
2019-02-12T10:11:16.571Z,103557.84
2019-02-12T10:14:18.350Z,103559.14
2019-02-12T10:17:26.496Z,103565.70
2019-02-12T10:20:22.591Z,103567.41
2019-02-12T10:24:18.966Z,103573.52
2019-02-12T10:26:43.143Z,103578.28
2019-02-12T10:30:11.233Z,103563.59
2019-02-12T10:32:37.488Z,103569.66
2019-02-12T10:35:05.286Z,103569.16
2019-02-12T10:37:33.201Z,103572.56
2019-02-12T10:40:01.006Z,103564.67
2019-02-12T10:42:28.824Z,103573.86
2019-02-12T10:44:56.831Z,103580.44
2019-02-12T10:47:24.591Z,103580.09
2019-02-12T10:49:52.375Z,103577.52
2019-02-12T10:52:20.340Z,103571.04
2019-02-12T10:54:48.102Z,103570.66
2019-02-12T10:57:15.982Z,103570.23
2019-02-12T10:59:43.947Z,103565.02
2019-02-12T11:02:13.627Z,103562.39
2019-02-12T11:04:41.421Z,103569.81
2019-02-12T11:07:09.403Z,103572.02
2019-02-12T11:09:37.225Z,103568.95
2019-02-12T11:12:05.019Z,103563.32
2019-02-12T11:14:33.012Z,103561.59
2019-02-12T11:17:00.779Z,103567.65
2019-02-12T11:19:28.559Z,103563.30
2019-02-12T11:21:56.528Z,103548.50
2019-02-12T11:24:24.352Z,103551.89
2019-02-12T11:26:52.268Z,103554.91
2019-02-12T11:29:20.244Z,103551.41
2019-02-12T11:31:48.146Z,103554.85
2019-02-12T11:34:19.051Z,103549.55
2019-02-12T11:36:46.983Z,103546.48
2019-02-12T11:39:16.058Z,103547.38
2019-02-12T11:41:44.930Z,103544.35
2019-02-12T11:44:12.924Z,103542.64
2019-02-12T11:46:40.880Z,103532.14
2019-02-12T11:49:08.822Z,103532.53
2019-02-12T11:51:36.771Z,103528.45
2019-02-12T11:54:04.795Z,103526.95
2019-02-12T11:56:33.652Z,103527.34
2019-02-12T11:59:01.549Z,103530.85
2019-02-12T12:01:31.067Z,103536.14
2019-02-12T12:03:58.964Z,103534.45
2019-02-12T12:06:26.763Z,103528.28
2019-02-12T12:08:54.776Z,103522.14
2019-02-12T12:11:23.672Z,103515.14
2019-02-12T12:13:51.472Z,103512.72
2019-02-12T12:16:19.451Z,103507.83
2019-02-12T12:18:47.243Z,103509.27
2019-02-12T12:21:15.021Z,103503.42
2019-02-12T12:23:43.080Z,103506.48
2019-02-12T12:26:11.140Z,103505.28
2019-02-12T12:28:38.952Z,103501.97
2019-02-12T12:31:08.529Z,103502.78
2019-02-12T12:33:36.560Z,103501.05
2019-02-12T12:36:04.336Z,103505.00
2019-02-12T12:38:32.134Z,103491.95
2019-02-12T12:41:00.009Z,103498.34
2019-02-12T12:43:27.816Z,103495.41
2019-02-12T12:45:55.616Z,103490.53
2019-02-12T12:48:23.690Z,103493.95
2019-02-12T12:50:51.667Z,103498.39
2019-02-12T12:53:19.464Z,103497.06
2019-02-12T12:55:47.249Z,103493.69
2019-02-12T12:58:15.173Z,103483.23
2019-02-12T13:00:42.941Z,103495.56
2019-02-12T13:03:10.711Z,103492.56
2019-02-12T13:05:38.689Z,103502.33
2019-02-12T13:08:06.471Z,103497.62
2019-02-12T13:10:34.431Z,103502.73
2019-02-12T13:13:02.195Z,103499.03
2019-02-12T13:15:30.847Z,103497.07
2019-02-12T13:17:58.614Z,103500.70
2019-02-12T13:20:26.639Z,103492.80
2019-02-12T13:22:54.408Z,103497.97
2019-02-12T13:25:22.179Z,103493.10
2019-02-12T13:27:50.143Z,103491.00
2019-02-12T13:30:18.094Z,103496.92
2019-02-12T13:32:45.891Z,103500.44
2019-02-12T13:35:14.019Z,103502.31
2019-02-12T13:37:43.068Z,103498.20
2019-02-12T13:40:11.278Z,103505.16
2019-02-12T13:42:39.211Z,103499.58
2019-02-12T13:45:09.987Z,103502.89
2019-02-12T13:47:37.779Z,103494.78
2019-02-12T13:50:06.670Z,103491.45
2019-02-12T13:52:34.741Z,103491.66
2019-02-12T13:55:02.806Z,103490.55
2019-02-12T13:57:30.744Z,103487.11
2019-02-12T13:59:58.676Z,103488.77
2019-02-12T14:02:26.589Z,103492.41
2019-02-12T14:04:56.166Z,103491.02
2019-02-12T14:07:24.065Z,103492.95
2019-02-12T14:09:51.867Z,103501.06
2019-02-12T14:12:20.010Z,103502.39
2019-02-12T14:14:47.869Z,103498.56
2019-02-12T14:17:15.637Z,103498.98
2019-02-12T14:19:43.685Z,103495.31
2019-02-12T14:22:11.479Z,103499.12
2019-02-12T14:24:40.482Z,103504.84
2019-02-12T14:27:09.507Z,103503.33
2019-02-12T14:29:39.182Z,103495.36
2019-02-12T14:32:07.296Z,103492.67
2019-02-12T14:34:35.680Z,103501.30
2019-02-12T14:37:03.536Z,103497.67
2019-02-12T14:39:31.806Z,103506.51
2019-02-12T14:41:59.853Z,103501.13
2019-02-12T14:44:27.895Z,103505.31
2019-02-12T14:46:55.752Z,103510.35
2019-02-12T14:49:23.548Z,103508.96
2019-02-12T14:51:51.669Z,103501.67
2019-02-12T14:54:19.478Z,103500.50
2019-02-12T14:56:47.431Z,103498.32
2019-02-12T14:59:15.405Z,103504.51
2019-02-12T15:01:43.184Z,103496.84
2019-02-12T15:04:11.014Z,103491.19
2019-02-12T15:06:39.241Z,103507.30
2019-02-12T15:09:07.062Z,103501.57
2019-02-12T15:11:35.067Z,103507.71
2019-02-12T15:14:02.995Z,103502.38
2019-02-12T15:16:30.859Z,103493.66
2019-02-12T15:18:58.794Z,103489.39
2019-02-12T15:21:26.695Z,103502.52
2019-02-12T15:23:54.637Z,103501.88
2019-02-12T15:26:22.713Z,103497.80
2019-02-12T15:28:51.109Z,103503.99
2019-02-12T15:31:19.165Z,103493.53
2019-02-12T15:33:47.143Z,103507.50
2019-02-12T15:36:15.014Z,103503.99
2019-02-12T15:38:42.887Z,103515.81
2019-02-12T15:41:10.673Z,103512.30
2019-02-12T15:43:38.611Z,103500.48
2019-02-12T15:46:06.413Z,103514.55
2019-02-12T15:48:34.391Z,103515.06
2019-02-12T15:51:02.187Z,103509.49
2019-02-12T15:53:29.974Z,103513.48
2019-02-12T15:55:58.178Z,103505.95
2019-02-12T15:58:28.323Z,103512.92
2019-02-12T16:00:58.669Z,103512.00
2019-02-12T16:03:26.727Z,103514.12
2019-02-12T16:05:55.141Z,103513.27
2019-02-12T16:08:24.528Z,103516.81
2019-02-12T16:10:55.173Z,103519.55
2019-02-12T16:13:24.132Z,103522.63
2019-02-12T16:15:52.048Z,103522.16
2019-02-12T16:18:21.344Z,103523.49
2019-02-12T16:20:49.804Z,103516.16
2019-02-12T16:23:17.625Z,103514.11
2019-02-12T16:25:45.417Z,103512.80
2019-02-12T16:28:13.428Z,103517.59
2019-02-12T16:30:41.265Z,103509.78
2019-02-12T16:33:10.670Z,103515.45
2019-02-12T16:35:38.758Z,103519.37
2019-02-12T16:38:07.655Z,103518.47
2019-02-12T16:40:35.496Z,103518.90
2019-02-12T16:43:03.395Z,103518.91
2019-02-12T16:45:37.579Z,103517.64
2019-02-12T16:48:05.587Z,103520.23
2019-02-12T16:50:33.540Z,103514.13
2019-02-12T16:53:01.590Z,103504.13
2019-02-12T16:55:29.927Z,103512.83
2019-02-12T16:57:57.963Z,103516.74
2019-02-12T17:00:25.777Z,103510.67
2019-02-12T17:02:53.731Z,103507.20
2019-02-12T17:05:21.708Z,103512.42
2019-02-12T17:07:49.682Z,103505.89
2019-02-12T17:10:19.980Z,103521.13
2019-02-12T17:12:47.831Z,103515.05
2019-02-12T17:15:15.843Z,103513.72
2019-02-12T17:17:43.742Z,103523.28
2019-02-12T17:20:14.962Z,103517.20
2019-02-12T17:22:43.924Z,103516.77
2019-02-12T17:25:12.174Z,103517.65
2019-02-12T17:27:40.138Z,103521.53
2019-02-12T17:30:10.522Z,103518.48
2019-02-12T17:32:38.345Z,103518.02
2019-02-12T17:35:06.406Z,103526.28
2019-02-12T17:37:34.163Z,103525.86
2019-02-12T17:40:02.076Z,103523.25
2019-02-12T17:42:30.123Z,103523.67
2019-02-12T17:44:58.423Z,103525.42
2019-02-12T17:47:26.465Z,103528.44
2019-02-12T17:49:54.414Z,103539.31
2019-02-12T17:52:22.261Z,103537.59
2019-02-12T17:54:50.328Z,103538.48
2019-02-12T17:57:18.101Z,103541.48
2019-02-12T17:59:46.225Z,103540.61
2019-02-12T18:02:14.244Z,103549.73
2019-02-12T18:04:42.330Z,103545.80
2019-02-12T18:07:10.377Z,103548.84
2019-02-12T18:09:38.242Z,103540.58
2019-02-12T18:12:06.631Z,103541.48
2019-02-12T18:14:34.454Z,103542.70
2019-02-12T18:17:04.224Z,103534.03
2019-02-12T18:19:32.381Z,103542.30
2019-02-12T18:22:00.360Z,103540.17
2019-02-12T18:24:28.148Z,103536.70
2019-02-12T18:26:56.104Z,103540.59
2019-02-12T18:29:24.067Z,103543.59
2019-02-12T18:31:51.935Z,103537.05
2019-02-12T18:34:20.033Z,103540.85
2019-02-12T18:36:48.070Z,103542.21
2019-02-12T18:39:16.091Z,103546.16
2019-02-12T18:41:44.045Z,103553.03
2019-02-12T18:44:11.855Z,103546.05
2019-02-12T18:46:39.677Z,103552.17
2019-02-12T18:49:07.649Z,103552.52
2019-02-12T18:51:35.445Z,103558.18
2019-02-12T18:54:03.349Z,103561.28
2019-02-12T18:56:31.160Z,103564.75
2019-02-12T18:58:59.130Z,103565.14
2019-02-12T19:01:27.059Z,103565.60
2019-02-12T19:03:54.853Z,103573.41
2019-02-12T19:06:22.967Z,103577.64
2019-02-12T19:08:50.750Z,103573.75
2019-02-12T19:11:18.691Z,103559.88
2019-02-12T19:13:46.661Z,103572.11
2019-02-12T19:16:14.477Z,103576.01
2019-02-12T19:18:42.372Z,103566.95
2019-02-12T19:21:10.487Z,103564.80
2019-02-12T19:23:38.479Z,103561.23
2019-02-12T19:26:06.291Z,103540.85
2019-02-12T19:28:34.115Z,103551.37
2019-02-12T19:31:02.158Z,103558.73
2019-02-12T19:33:29.984Z,103541.23
2019-02-12T19:35:57.890Z,103544.17
2019-02-12T19:38:25.897Z,103551.55
2019-02-12T19:40:53.864Z,103558.95
2019-02-12T19:43:21.669Z,103547.23
2019-02-12T19:45:49.619Z,103555.43
2019-02-12T19:48:17.663Z,103554.71
2019-02-12T19:50:45.677Z,103554.65
2019-02-12T19:53:13.641Z,103550.73
2019-02-12T19:55:41.500Z,103545.37
2019-02-12T19:58:09.471Z,103551.59
2019-02-12T20:00:37.241Z,103552.89
2019-02-12T20:03:05.271Z,103559.46
2019-02-12T20:05:33.286Z,103562.86
2019-02-12T20:08:01.082Z,103563.26
2019-02-12T20:10:29.199Z,103572.41
2019-02-12T20:12:57.105Z,103568.44
2019-02-12T20:15:25.048Z,103564.55
2019-02-12T20:17:52.829Z,103552.83
2019-02-12T20:20:20.812Z,103558.95
2019-02-12T20:22:48.622Z,103561.92
2019-02-12T20:25:16.402Z,103572.34
2019-02-12T20:27:44.356Z,103564.83
2019-02-12T20:30:13.064Z,103563.19
2019-02-12T20:32:41.007Z,103568.91
2019-02-12T20:35:10.944Z,103565.84
2019-02-12T20:37:38.989Z,103566.18
2019-02-12T20:40:08.667Z,103565.21
2019-02-12T20:42:36.671Z,103562.59
2019-02-12T20:45:06.746Z,103562.19
2019-02-12T20:47:34.633Z,103566.88
2019-02-12T20:50:02.724Z,103574.64
2019-02-12T20:52:30.925Z,103580.57
2019-02-12T20:54:58.776Z,103584.52
2019-02-12T20:57:26.638Z,103591.04
2019-02-12T20:59:54.772Z,103595.85
2019-02-12T21:02:22.715Z,103596.39
2019-02-12T21:04:50.644Z,103579.50
2019-02-12T21:07:18.466Z,103588.39
2019-02-12T21:09:46.430Z,103586.30
2019-02-12T21:12:14.411Z,103554.05
2019-02-12T21:14:42.326Z,103580.96
2019-02-12T21:17:10.140Z,103585.20
2019-02-12T21:19:38.117Z,103592.53
2019-02-12T21:22:07.713Z,103599.90
2019-02-12T21:24:35.501Z,103614.30
2019-02-12T21:27:07.225Z,103616.78
2019-02-12T21:29:36.123Z,103619.96
2019-02-12T21:32:03.928Z,103613.70
2019-02-12T21:34:33.076Z,103613.25
2019-02-12T21:37:00.877Z,103623.63
2019-02-12T21:39:28.812Z,103618.88
2019-02-12T21:41:56.843Z,103619.52
2019-02-12T21:44:24.635Z,103616.99
2019-02-12T21:46:54.222Z,103625.64
2019-02-12T21:49:22.216Z,103625.67
2019-02-12T21:51:49.986Z,103624.81
2019-02-12T21:54:17.822Z,103629.18
2019-02-12T21:56:45.743Z,103624.92
2019-02-12T21:59:13.553Z,103613.25
2019-02-12T22:01:41.347Z,103611.00
2019-02-12T22:04:09.323Z,103616.58
2019-02-12T22:06:37.230Z,103622.44
2019-02-12T22:09:05.597Z,103615.97
2019-02-12T22:11:33.394Z,103609.09
2019-02-12T22:14:01.305Z,103623.41
2019-02-12T22:16:29.296Z,103616.45
2019-02-12T22:18:57.278Z,103613.94
2019-02-12T22:21:25.127Z,103606.43
2019-02-12T22:23:53.013Z,103626.83
2019-02-12T22:26:20.993Z,103628.50
2019-02-12T22:28:48.955Z,103628.52
2019-02-12T22:31:16.749Z,103623.27
2019-02-12T22:33:44.692Z,103631.95
2019-02-12T22:36:12.488Z,103634.88
2019-02-12T22:38:40.455Z,103634.52
2019-02-12T22:41:08.402Z,103636.37
2019-02-12T22:43:38.009Z,103633.37
2019-02-12T22:46:06.043Z,103632.00
2019-02-12T22:48:33.958Z,103638.08
2019-02-12T22:51:01.732Z,103645.91
2019-02-12T22:53:29.494Z,103638.06
2019-02-12T22:55:57.472Z,103642.64
2019-02-12T22:58:25.445Z,103639.35
2019-02-12T23:01:00.590Z,103637.34
2019-02-12T23:03:28.564Z,103645.30
2019-02-12T23:05:56.355Z,103657.31
2019-02-12T23:08:24.113Z,103653.72
2019-02-12T23:10:52.087Z,103662.41
2019-02-12T23:13:20.444Z,103654.20
2019-02-12T23:15:48.246Z,103658.80
2019-02-12T23:18:16.056Z,103655.62
2019-02-12T23:20:43.973Z,103669.80
2019-02-12T23:23:11.751Z,103662.64
2019-02-12T23:25:39.924Z,103664.84
2019-02-12T23:28:09.515Z,103669.22
2019-02-12T23:30:37.290Z,103662.94
2019-02-12T23:33:05.269Z,103654.95
2019-02-12T23:35:33.238Z,103659.02
2019-02-12T23:38:01.103Z,103659.41
2019-02-12T23:40:29.600Z,103658.62
2019-02-12T23:42:57.569Z,103653.31
2019-02-12T23:45:25.539Z,103655.09
2019-02-12T23:47:53.336Z,103655.03
2019-02-12T23:50:21.116Z,103649.82
2019-02-12T23:52:49.163Z,103660.16
2019-02-12T23:55:16.981Z,103667.68
2019-02-12T23:57:44.746Z,103647.13
